createdAt,value
2023-05-17T00:02:16.017Z,71.90
2023-05-17T00:04:45.491Z,71.70
2023-05-17T00:07:13.134Z,71.90
2023-05-17T00:09:43.587Z,71.80
2023-05-17T00:12:11.235Z,71.60
2023-05-17T00:14:38.808Z,71.60
2023-05-17T00:17:06.525Z,71.70
2023-05-17T00:19:34.123Z,71.60
2023-05-17T00:22:01.742Z,71.70
2023-05-17T00:24:29.292Z,71.70
2023-05-17T00:26:57.259Z,71.60
2023-05-17T00:29:24.813Z,71.50
2023-05-17T00:31:52.350Z,71.40
2023-05-17T00:34:19.992Z,71.40
2023-05-17T00:36:47.541Z,71.50
2023-05-17T00:39:15.070Z,71.90
2023-05-17T00:41:43.230Z,71.30
2023-05-17T00:44:10.954Z,71.10
2023-05-17T00:46:38.604Z,71.00
2023-05-17T00:49:06.196Z,71.00
2023-05-17T00:51:35.182Z,70.90
2023-05-17T00:54:04.115Z,70.80
2023-05-17T00:56:33.262Z,70.80
2023-05-17T00:59:01.226Z,70.90
2023-05-17T01:01:29.132Z,70.90
2023-05-17T01:03:57.549Z,70.80
2023-05-17T01:06:25.436Z,70.80
2023-05-17T01:08:54.137Z,70.60
2023-05-17T01:11:36.900Z,70.70
2023-05-17T01:14:26.947Z,70.50
2023-05-17T01:17:14.647Z,70.60
2023-05-17T01:20:06.789Z,70.60
2023-05-17T01:22:37.308Z,70.50
2023-05-17T01:25:50.537Z,70.70
2023-05-17T01:28:20.682Z,70.70
2023-05-17T01:30:50.682Z,70.50
2023-05-17T01:33:21.319Z,70.40
2023-05-17T01:35:48.960Z,70.50
2023-05-17T01:38:16.562Z,70.50
2023-05-17T01:40:55.538Z,70.50
2023-05-17T01:43:31.894Z,70.50
2023-05-17T01:46:14.439Z,70.50
2023-05-17T01:48:50.009Z,70.60
2023-05-17T01:51:20.826Z,70.50
2023-05-17T01:53:56.241Z,70.30
2023-05-17T01:56:31.485Z,70.20
2023-05-17T01:59:04.987Z,70.90
2023-05-17T02:01:33.152Z,70.20
2023-05-17T02:04:00.836Z,70.10
2023-05-17T02:06:28.433Z,70.20
2023-05-17T02:09:03.278Z,70.10
2023-05-17T02:11:31.124Z,69.80
2023-05-17T02:13:59.271Z,69.80
2023-05-17T02:16:26.826Z,69.60
2023-05-17T02:18:54.486Z,69.70
2023-05-17T02:21:22.246Z,69.70
2023-05-17T02:23:50.052Z,69.70
2023-05-17T02:26:17.573Z,69.50
2023-05-17T02:28:45.197Z,69.70
2023-05-17T02:31:13.009Z,69.50
2023-05-17T02:33:40.659Z,69.20
2023-05-17T02:36:08.455Z,69.40
2023-05-17T02:38:36.154Z,69.40
2023-05-17T02:41:04.078Z,69.40
2023-05-17T02:43:31.833Z,69.30
2023-05-17T02:46:02.595Z,69.20
2023-05-17T02:48:32.350Z,69.30
2023-05-17T02:51:00.041Z,69.20
2023-05-17T02:53:30.800Z,69.20
2023-05-17T02:55:58.488Z,68.80
2023-05-17T02:58:26.626Z,69.00
2023-05-17T03:00:54.222Z,69.00
2023-05-17T03:03:21.981Z,69.00
2023-05-17T03:05:52.046Z,69.00
2023-05-17T03:08:19.604Z,69.00
2023-05-17T03:10:47.553Z,68.90
2023-05-17T03:13:15.079Z,69.00
2023-05-17T03:15:42.653Z,69.00
2023-05-17T03:18:10.364Z,68.80
2023-05-17T03:20:38.080Z,68.80
2023-05-17T03:23:05.749Z,68.80
2023-05-17T03:25:33.421Z,68.90
2023-05-17T03:28:01.014Z,68.80
2023-05-17T03:30:28.589Z,68.90
2023-05-17T03:32:56.331Z,68.80
2023-05-17T03:35:23.965Z,68.80
2023-05-17T03:37:52.627Z,68.80
2023-05-17T03:40:20.325Z,68.60
2023-05-17T03:42:47.943Z,69.00
2023-05-17T03:45:16.881Z,68.70
2023-05-17T03:47:44.548Z,68.60
2023-05-17T03:50:12.368Z,68.40
2023-05-17T03:52:42.263Z,68.50
2023-05-17T03:55:10.216Z,68.50
2023-05-17T03:57:37.971Z,68.50
2023-05-17T04:00:09.550Z,68.30
2023-05-17T04:02:37.257Z,68.20
2023-05-17T04:05:05.732Z,68.20
2023-05-17T04:07:33.328Z,68.30
2023-05-17T04:10:03.258Z,68.30
2023-05-17T04:12:30.925Z,68.10
2023-05-17T04:14:58.590Z,68.10
2023-05-17T04:17:26.268Z,68.30
2023-05-17T04:19:54.160Z,68.20
2023-05-17T04:22:22.364Z,68.30
2023-05-17T04:24:50.006Z,68.20
2023-05-17T04:27:19.620Z,68.40
2023-05-17T04:29:47.264Z,68.30
2023-05-17T04:32:14.821Z,68.30
2023-05-17T04:34:43.477Z,68.20
2023-05-17T04:37:11.257Z,68.20
2023-05-17T04:39:38.901Z,68.20
2023-05-17T04:42:06.472Z,68.30
2023-05-17T04:44:34.011Z,68.40
2023-05-17T04:47:01.657Z,68.50
2023-05-17T04:49:29.255Z,68.50
2023-05-17T04:51:59.439Z,67.80
2023-05-17T04:54:27.397Z,68.10
2023-05-17T04:56:54.925Z,67.70
2023-05-17T04:59:22.493Z,68.20
2023-05-17T05:01:51.550Z,68.20
2023-05-17T05:04:19.203Z,68.10
2023-05-17T05:06:46.795Z,68.20
2023-05-17T05:09:14.459Z,68.20
2023-05-17T05:11:42.035Z,67.80
2023-05-17T05:14:09.702Z,67.80
2023-05-17T05:16:37.580Z,67.90
2023-05-17T05:19:05.427Z,67.90
2023-05-17T05:21:33.202Z,67.90
2023-05-17T05:24:00.779Z,68.10
2023-05-17T05:26:28.406Z,67.70
2023-05-17T05:28:56.040Z,67.70
2023-05-17T05:31:23.565Z,67.90
2023-05-17T05:33:51.170Z,67.70
2023-05-17T05:36:18.765Z,67.70
2023-05-17T05:38:46.281Z,67.40
2023-05-17T05:41:13.891Z,67.50
2023-05-17T05:43:41.476Z,67.50
2023-05-17T05:46:09.112Z,67.60
2023-05-17T05:48:39.706Z,67.60
2023-05-17T05:51:07.617Z,67.60
2023-05-17T05:53:35.209Z,67.60
2023-05-17T05:56:03.476Z,67.60
2023-05-17T05:58:32.403Z,67.60
2023-05-17T06:01:00.490Z,67.60
2023-05-17T06:03:28.068Z,67.70
2023-05-17T06:05:56.317Z,67.70
2023-05-17T06:08:24.029Z,67.50
2023-05-17T06:10:52.216Z,67.50
2023-05-17T06:13:19.806Z,67.50
2023-05-17T06:15:47.497Z,67.60
2023-05-17T06:18:15.189Z,67.50
2023-05-17T06:20:42.969Z,67.30
2023-05-17T06:23:10.866Z,67.20
2023-05-17T06:25:38.814Z,67.30
2023-05-17T06:28:09.681Z,67.30
2023-05-17T06:30:37.363Z,67.40
2023-05-17T06:33:05.149Z,67.20
2023-05-17T06:35:43.687Z,67.20
2023-05-17T06:38:15.399Z,67.30
2023-05-17T06:40:42.983Z,67.20
2023-05-17T06:43:10.677Z,67.20
2023-05-17T06:45:38.235Z,67.00
2023-05-17T06:48:06.041Z,67.20
2023-05-17T06:50:33.807Z,67.10
2023-05-17T06:53:01.418Z,67.20
2023-05-17T06:55:31.496Z,67.20
2023-05-17T06:58:00.535Z,67.00
2023-05-17T07:00:29.308Z,67.30
2023-05-17T07:02:57.156Z,67.40
2023-05-17T07:05:24.949Z,67.50
2023-05-17T07:07:52.628Z,67.40
2023-05-17T07:10:20.360Z,67.50
2023-05-17T07:12:47.938Z,67.50
2023-05-17T07:15:16.044Z,67.50
2023-05-17T07:17:43.749Z,67.50
2023-05-17T07:20:12.450Z,67.50
2023-05-17T07:22:39.978Z,67.50
2023-05-17T07:25:08.770Z,67.50
2023-05-17T07:27:36.659Z,67.50
2023-05-17T07:30:05.084Z,67.60
2023-05-17T07:32:32.706Z,67.30
2023-05-17T07:35:00.482Z,67.40
2023-05-17T07:37:28.069Z,67.40
2023-05-17T07:39:55.860Z,67.50
2023-05-17T07:42:23.742Z,67.20
2023-05-17T07:44:51.438Z,67.40
2023-05-17T07:47:19.134Z,67.50
2023-05-17T07:49:46.760Z,67.30
2023-05-17T07:52:14.318Z,67.50
2023-05-17T07:54:41.962Z,67.50
2023-05-17T07:57:09.602Z,67.30
2023-05-17T07:59:37.183Z,67.30
2023-05-17T08:02:05.006Z,67.40
2023-05-17T08:04:32.748Z,67.40
2023-05-17T08:07:01.233Z,67.50
2023-05-17T08:09:31.929Z,67.50
2023-05-17T08:11:59.737Z,67.60
2023-05-17T08:14:27.614Z,67.50
2023-05-17T08:16:55.203Z,67.50
2023-05-17T08:19:22.926Z,67.60
2023-05-17T08:21:55.491Z,67.60
2023-05-17T08:24:23.125Z,67.70
2023-05-17T08:26:53.546Z,67.70
2023-05-17T08:29:21.196Z,67.70
2023-05-17T08:31:48.999Z,67.80
2023-05-17T08:34:16.660Z,68.00
2023-05-17T08:36:44.853Z,68.00
2023-05-17T08:39:12.988Z,67.80
2023-05-17T08:41:40.972Z,68.00
2023-05-17T08:44:10.506Z,68.00
2023-05-17T08:46:40.239Z,68.10
2023-05-17T08:49:08.536Z,68.20
2023-05-17T08:51:37.483Z,68.20
2023-05-17T08:54:06.443Z,68.30
2023-05-17T08:56:36.642Z,67.70
2023-05-17T08:59:06.788Z,67.80
2023-05-17T09:01:34.781Z,68.10
2023-05-17T09:04:03.082Z,68.10
2023-05-17T09:06:32.839Z,68.00
2023-05-17T09:09:01.753Z,68.10
2023-05-17T09:11:31.450Z,68.00
2023-05-17T09:14:07.115Z,68.20
2023-05-17T09:16:36.587Z,68.30
2023-05-17T09:19:05.995Z,68.10
2023-05-17T09:21:34.539Z,68.10
2023-05-17T09:24:06.970Z,67.90
2023-05-17T09:26:46.187Z,67.90
2023-05-17T09:29:15.734Z,68.00
2023-05-17T09:31:47.220Z,67.90
2023-05-17T09:34:20.033Z,68.00
2023-05-17T09:36:47.902Z,68.10
2023-05-17T09:39:15.990Z,68.10
2023-05-17T09:41:48.304Z,67.80
2023-05-17T09:44:16.891Z,68.00
2023-05-17T09:46:49.083Z,68.10
2023-05-17T09:49:18.091Z,68.10
2023-05-17T09:51:48.822Z,68.10
2023-05-17T09:54:18.005Z,68.10
2023-05-17T09:56:45.853Z,68.10
2023-05-17T09:59:17.297Z,68.00
2023-05-17T10:01:45.900Z,68.60
2023-05-17T10:04:14.490Z,68.00
2023-05-17T10:06:51.393Z,68.00
2023-05-17T10:09:23.135Z,68.60
2023-05-17T10:11:56.735Z,67.90
2023-05-17T10:14:29.034Z,67.90
2023-05-17T10:16:57.655Z,67.80
2023-05-17T10:19:26.441Z,67.60
2023-05-17T10:21:56.655Z,67.80
2023-05-17T10:24:25.860Z,67.90
2023-05-17T10:26:54.334Z,67.50
2023-05-17T10:29:22.899Z,67.40
2023-05-17T10:31:54.204Z,67.40
2023-05-17T10:34:22.271Z,67.50
2023-05-17T10:36:53.472Z,67.70
2023-05-17T10:39:22.458Z,67.70
2023-05-17T10:41:55.729Z,67.70
2023-05-17T10:44:34.886Z,67.80
2023-05-17T10:47:02.753Z,67.60
2023-05-17T10:49:36.983Z,67.70
2023-05-17T10:52:21.086Z,67.70
2023-05-17T10:54:55.101Z,67.60
2023-05-17T11:00:19.628Z,67.80
2023-05-17T11:02:49.341Z,67.90
2023-05-17T11:05:27.799Z,67.90
2023-05-17T11:08:17.536Z,67.70
2023-05-17T11:11:10.991Z,67.70
2023-05-17T11:13:54.825Z,67.50
2023-05-17T11:16:42.680Z,68.20
2023-05-17T11:19:12.451Z,67.60
2023-05-17T11:21:47.594Z,67.60
2023-05-17T11:24:25.977Z,67.60
2023-05-17T11:26:56.455Z,67.60
2023-05-17T11:29:30.133Z,67.40
2023-05-17T11:31:57.763Z,67.50
2023-05-17T11:34:27.159Z,67.50
2023-05-17T11:36:56.832Z,67.50
2023-05-17T11:39:25.725Z,67.40
2023-05-17T11:41:55.149Z,67.40
2023-05-17T11:44:30.497Z,67.50
2023-05-17T11:47:10.063Z,67.40
2023-05-17T11:49:41.306Z,67.40
2023-05-17T11:52:09.377Z,67.30
2023-05-17T11:54:39.328Z,67.20
2023-05-17T11:57:07.633Z,67.30
2023-05-17T11:59:43.417Z,67.30
2023-05-17T12:02:11.326Z,67.30
2023-05-17T12:04:39.698Z,67.50
2023-05-17T12:07:11.306Z,67.20
2023-05-17T12:09:40.828Z,67.10
2023-05-17T12:12:08.988Z,67.10
2023-05-17T12:14:36.901Z,67.20
2023-05-17T12:17:09.460Z,67.30
2023-05-17T12:19:37.687Z,67.10
2023-05-17T12:22:12.802Z,66.90
2023-05-17T12:24:42.886Z,67.00
2023-05-17T12:27:11.122Z,67.10
2023-05-17T12:29:39.989Z,67.10
2023-05-17T12:32:10.224Z,67.10
2023-05-17T12:34:38.545Z,67.00
2023-05-17T12:37:11.021Z,66.90
2023-05-17T12:39:39.416Z,67.10
2023-05-17T12:42:07.856Z,67.20
2023-05-17T12:44:36.047Z,67.00
2023-05-17T12:47:04.077Z,67.00
2023-05-17T12:49:31.689Z,67.00
2023-05-17T12:52:05.493Z,66.90
2023-05-17T12:54:33.871Z,67.00
2023-05-17T12:57:18.791Z,67.10
2023-05-17T12:59:50.740Z,67.20
2023-05-17T13:02:20.683Z,67.20
2023-05-17T13:04:48.435Z,67.30
2023-05-17T13:07:26.674Z,67.20
2023-05-17T13:09:54.272Z,67.20
2023-05-17T13:12:23.967Z,67.30
2023-05-17T13:14:53.732Z,67.30
2023-05-17T13:17:40.791Z,67.20
2023-05-17T13:20:10.511Z,67.10
2023-05-17T13:22:47.851Z,67.10
2023-05-17T13:25:15.976Z,67.10
2023-05-17T13:27:47.043Z,67.00
2023-05-17T13:30:17.133Z,66.70
2023-05-17T13:32:47.523Z,67.00
2023-05-17T13:35:15.248Z,67.10
2023-05-17T13:37:42.835Z,67.20
2023-05-17T13:40:10.805Z,67.10
2023-05-17T13:42:38.512Z,67.00
2023-05-17T13:45:09.361Z,67.00
2023-05-17T13:47:37.048Z,66.90
2023-05-17T13:50:04.915Z,66.90
2023-05-17T13:52:32.535Z,66.90
2023-05-17T13:55:00.253Z,66.80
2023-05-17T13:57:27.930Z,66.80
2023-05-17T13:59:55.551Z,66.70
2023-05-17T14:02:23.237Z,66.70
2023-05-17T14:04:51.011Z,66.60
2023-05-17T14:07:18.565Z,66.70
2023-05-17T14:09:46.994Z,66.00
2023-05-17T14:12:17.370Z,66.50
2023-05-17T14:14:45.004Z,66.50
2023-05-17T14:17:12.869Z,66.30
2023-05-17T14:19:40.644Z,66.60
2023-05-17T14:22:09.219Z,66.50
2023-05-17T14:24:36.838Z,66.30
2023-05-17T14:27:05.117Z,66.20
2023-05-17T14:29:38.584Z,66.30
2023-05-17T14:32:06.991Z,65.90
2023-05-17T14:34:34.585Z,66.20
2023-05-17T14:37:02.540Z,66.20
2023-05-17T14:39:30.091Z,66.20
2023-05-17T14:41:57.707Z,66.20
2023-05-17T14:44:25.350Z,65.70
2023-05-17T14:46:52.961Z,66.00
2023-05-17T14:49:20.915Z,65.80
2023-05-17T14:51:48.528Z,65.50
2023-05-17T14:54:17.006Z,65.50
2023-05-17T14:56:45.659Z,65.80
2023-05-17T14:59:13.294Z,66.00
2023-05-17T15:01:41.463Z,66.00
2023-05-17T15:04:09.822Z,65.80
2023-05-17T15:06:37.588Z,66.00
2023-05-17T15:09:05.282Z,65.80
2023-05-17T15:11:33.965Z,65.70
2023-05-17T15:14:02.541Z,65.40
2023-05-17T15:16:30.128Z,65.70
2023-05-17T15:18:58.183Z,66.00
2023-05-17T15:21:26.357Z,65.60
2023-05-17T15:23:53.938Z,65.50
2023-05-17T15:26:22.377Z,65.50
2023-05-17T15:28:52.598Z,65.50
2023-05-17T15:31:20.247Z,65.40
2023-05-17T15:33:47.906Z,64.90
2023-05-17T15:36:16.593Z,65.10
2023-05-17T15:38:47.173Z,65.50
2023-05-17T15:41:16.295Z,65.60
2023-05-17T15:43:44.232Z,65.50
2023-05-17T15:46:12.488Z,65.20
2023-05-17T15:48:40.219Z,64.80
2023-05-17T15:51:07.891Z,64.90
2023-05-17T15:53:35.633Z,65.00
2023-05-17T15:56:03.518Z,64.90
2023-05-17T15:58:34.409Z,65.00
2023-05-17T16:01:06.202Z,65.00
2023-05-17T16:03:34.433Z,64.70
2023-05-17T16:06:05.637Z,65.00
2023-05-17T16:08:33.507Z,64.90
2023-05-17T16:11:02.532Z,64.70
2023-05-17T16:13:31.365Z,64.50
2023-05-17T16:16:00.395Z,64.50
2023-05-17T16:18:28.665Z,64.10
2023-05-17T16:21:02.381Z,64.20
2023-05-17T16:23:30.011Z,64.20
2023-05-17T16:25:58.107Z,64.20
2023-05-17T16:28:26.037Z,64.30
2023-05-17T16:30:53.688Z,64.30
2023-05-17T16:33:21.594Z,64.00
2023-05-17T16:35:49.826Z,63.90
2023-05-17T16:38:17.603Z,63.50
2023-05-17T16:40:45.295Z,63.80
2023-05-17T16:43:16.265Z,63.90
2023-05-17T16:45:47.043Z,63.70
2023-05-17T16:48:15.430Z,63.60
2023-05-17T16:50:43.211Z,63.70
2023-05-17T16:53:11.194Z,63.80
2023-05-17T16:55:38.740Z,63.70
2023-05-17T16:58:06.428Z,63.60
2023-05-17T17:00:34.165Z,63.70
2023-05-17T17:03:02.125Z,63.50
2023-05-17T17:05:29.819Z,63.10
2023-05-17T17:08:00.568Z,63.00
2023-05-17T17:10:28.391Z,63.40
2023-05-17T17:12:56.699Z,63.30
2023-05-17T17:15:25.236Z,63.30
2023-05-17T17:17:52.860Z,62.20
2023-05-17T17:20:23.712Z,63.10
2023-05-17T17:22:51.520Z,63.30
2023-05-17T17:25:19.640Z,63.60
2023-05-17T17:27:47.375Z,63.10
2023-05-17T17:30:15.008Z,62.80
2023-05-17T17:32:42.679Z,62.70
2023-05-17T17:35:10.833Z,62.90
2023-05-17T17:37:38.437Z,62.70
2023-05-17T17:40:07.705Z,62.50
2023-05-17T17:42:35.370Z,62.60
2023-05-17T17:45:03.045Z,62.60
2023-05-17T17:47:30.774Z,62.60
2023-05-17T17:49:58.451Z,62.30
2023-05-17T17:52:26.890Z,62.50
2023-05-17T17:54:55.464Z,62.60
2023-05-17T17:57:26.330Z,62.20
2023-05-17T17:59:58.317Z,61.00
2023-05-17T18:02:26.174Z,62.20
2023-05-17T18:04:53.831Z,62.80
2023-05-17T18:07:28.024Z,62.30
2023-05-17T18:10:04.366Z,62.60
2023-05-17T18:12:32.538Z,62.20
2023-05-17T18:15:00.154Z,62.10
2023-05-17T18:17:28.706Z,62.50
2023-05-17T18:19:56.298Z,62.80
2023-05-17T18:22:23.923Z,63.40
2023-05-17T18:24:52.902Z,62.70
2023-05-17T18:27:27.988Z,63.10
2023-05-17T18:29:56.052Z,63.10
2023-05-17T18:32:23.744Z,62.70
2023-05-17T18:34:51.390Z,62.70
2023-05-17T18:37:22.815Z,63.30
2023-05-17T18:39:54.928Z,62.70
2023-05-17T18:42:25.226Z,62.00
2023-05-17T18:44:54.041Z,63.40
2023-05-17T18:47:23.752Z,62.70
2023-05-17T18:49:52.189Z,63.80
2023-05-17T18:52:19.978Z,63.00
2023-05-17T18:54:48.025Z,63.90
2023-05-17T18:57:15.574Z,63.40
2023-05-17T18:59:43.155Z,63.60
2023-05-17T19:02:10.846Z,63.30
2023-05-17T19:04:38.515Z,63.90
2023-05-17T19:07:06.462Z,63.80
2023-05-17T19:09:34.834Z,63.70
2023-05-17T19:12:02.508Z,63.40
2023-05-17T19:14:30.140Z,64.00
2023-05-17T19:16:57.915Z,64.20
2023-05-17T19:19:26.195Z,63.60
2023-05-17T19:21:54.185Z,63.50
2023-05-17T19:24:21.719Z,62.90
2023-05-17T19:26:49.392Z,63.70
2023-05-17T19:29:16.987Z,62.90
2023-05-17T19:31:44.651Z,63.30
2023-05-17T19:34:12.300Z,63.00
2023-05-17T19:36:39.903Z,63.30
2023-05-17T19:39:07.811Z,63.50
2023-05-17T19:41:35.437Z,63.20
2023-05-17T19:44:06.495Z,63.70
2023-05-17T19:46:34.116Z,63.70
2023-05-17T19:49:01.814Z,63.70
2023-05-17T19:51:29.358Z,63.70
2023-05-17T19:53:57.072Z,63.50
2023-05-17T19:56:24.925Z,63.40
2023-05-17T19:58:53.098Z,63.40
2023-05-17T20:01:22.039Z,63.80
2023-05-17T20:03:49.820Z,63.90
2023-05-17T20:06:17.556Z,63.60
2023-05-17T20:08:47.458Z,63.80
2023-05-17T20:11:15.111Z,63.80
2023-05-17T20:13:42.652Z,63.50
2023-05-17T20:16:13.460Z,63.60
2023-05-17T20:18:43.867Z,63.60
2023-05-17T20:21:15.482Z,63.20
2023-05-17T20:23:43.166Z,63.00
2023-05-17T20:26:17.089Z,63.40
2023-05-17T20:28:45.468Z,62.80
2023-05-17T20:31:13.545Z,63.10
2023-05-17T20:33:41.316Z,62.80
2023-05-17T20:36:11.950Z,63.60
2023-05-17T20:38:39.546Z,63.30
2023-05-17T20:41:07.634Z,63.70
2023-05-17T20:43:37.028Z,63.20
2023-05-17T20:46:07.854Z,63.60
2023-05-17T20:48:35.497Z,63.30
2023-05-17T20:51:03.971Z,63.00
2023-05-17T20:53:31.910Z,63.20
2023-05-17T20:56:02.959Z,63.10
2023-05-17T20:58:30.741Z,63.00
2023-05-17T21:01:01.299Z,63.40
2023-05-17T21:03:33.587Z,63.90
2023-05-17T21:06:02.441Z,63.40
2023-05-17T21:08:30.112Z,63.50
2023-05-17T21:10:57.743Z,63.60
2023-05-17T21:13:26.590Z,63.30
2023-05-17T21:15:55.069Z,63.00
2023-05-17T21:18:24.021Z,63.50
2023-05-17T21:20:52.431Z,63.20
2023-05-17T21:23:20.490Z,63.80
2023-05-17T21:25:49.282Z,63.10
2023-05-17T21:28:16.875Z,63.00
2023-05-17T21:30:44.502Z,63.30
2023-05-17T21:33:12.308Z,63.10
2023-05-17T21:35:39.968Z,63.00
2023-05-17T21:38:07.581Z,63.10
2023-05-17T21:40:35.223Z,63.10
2023-05-17T21:43:02.909Z,62.70
2023-05-17T21:45:34.368Z,62.60
2023-05-17T21:48:02.015Z,62.60
2023-05-17T21:50:29.988Z,62.50
2023-05-17T21:52:57.957Z,62.50
2023-05-17T21:55:27.038Z,62.40
2023-05-17T21:57:55.250Z,62.30
2023-05-17T22:00:25.030Z,62.80
2023-05-17T22:02:52.692Z,62.90
2023-05-17T22:05:20.373Z,62.70
2023-05-17T22:07:47.942Z,62.90
2023-05-17T22:10:15.491Z,62.30
2023-05-17T22:12:43.046Z,63.10
2023-05-17T22:15:11.286Z,62.30
2023-05-17T22:17:51.257Z,62.50
2023-05-17T22:20:23.127Z,62.30
2023-05-17T22:22:50.746Z,62.70
2023-05-17T22:25:18.602Z,62.60
2023-05-17T22:27:46.290Z,62.50
2023-05-17T22:30:14.282Z,62.30
2023-05-17T22:32:41.836Z,62.60
2023-05-17T22:35:09.783Z,62.40
2023-05-17T22:37:37.814Z,61.70
2023-05-17T22:40:06.856Z,62.50
2023-05-17T22:42:34.493Z,61.50
2023-05-17T22:45:02.201Z,62.50
2023-05-17T22:47:30.839Z,61.90
2023-05-17T22:50:00.982Z,62.20
2023-05-17T22:52:28.609Z,62.20
2023-05-17T22:54:56.271Z,62.00
2023-05-17T22:57:23.805Z,62.20
2023-05-17T22:59:51.404Z,62.00
2023-05-17T23:02:18.929Z,61.60
2023-05-17T23:04:46.717Z,61.70
2023-05-17T23:07:15.332Z,61.80
2023-05-17T23:09:43.100Z,61.80
2023-05-17T23:12:14.391Z,61.80
2023-05-17T23:14:42.014Z,61.50
2023-05-17T23:17:10.190Z,61.70
2023-05-17T23:19:37.860Z,61.80
2023-05-17T23:22:06.643Z,62.10
2023-05-17T23:24:38.982Z,61.90
2023-05-17T23:27:10.451Z,61.90
2023-05-17T23:29:38.092Z,62.10
2023-05-17T23:32:06.262Z,61.40
2023-05-17T23:34:34.155Z,61.90
2023-05-17T23:37:01.756Z,61.50
2023-05-17T23:39:29.382Z,62.10
2023-05-17T23:41:58.486Z,62.10
2023-05-17T23:44:26.346Z,61.50
2023-05-17T23:46:55.200Z,61.70
2023-05-17T23:49:25.457Z,61.90
2023-05-17T23:51:53.180Z,61.70
2023-05-17T23:54:21.502Z,61.90
2023-05-17T23:56:49.105Z,61.80
2023-05-17T23:59:16.642Z,61.60
